Nearby METAR Reports

 

KCMH - Columbus, Ohio, USA
Distance from station: SW 5mi, 8km
Updated: Mon, 28-Sep-2020 5:17pm EDT
Light rain, Mist, Overcast
Light rain, Mist, Overcast
 Wind from S
Wind: S 13 mph , 20 km/h, Gust: 21 mph , 33 km/h
Temperature: 68°F , 20°C
Dew Point: 66°F , 19°C
Humidity: 94%
Barometer: 29.67 inHg , 1004.7 hPa
Summary: Light rain, Mist
Clouds: Overcast
Visibility: 6 miles , 10 km
Cloud details: Few Clouds 900 ft
Mostly cloudy 2700 ft
Overcast 4500 ft
2020/09/28 21:17 KCMH 282117Z 19011G18KT 6SM -RA BR FEW009 BKN027 OVC045 20/19 A2967 RMK AO2 P0008 T02000189 $
KOSU - Columbus/St Univ, Ohio, USA
Distance from station: W 14mi, 23km
Updated: Mon, 28-Sep-2020 5:24pm EDT
Light rain, Mist, Overcast
Light rain, Mist, Overcast
 Wind from WNW
Wind: WNW 22 mph , 35 km/h, Gust: 32 mph , 52 km/h
Temperature: 63°F , 17°C
Dew Point: 61°F , 16°C
Humidity: 94%
Barometer: 29.70 inHg , 1005.8 hPa
Summary: Light rain, Mist
Clouds: Overcast
Visibility: 4 miles , 6 km
Cloud details: Partly cloudy 900 ft
Mostly cloudy 1700 ft
Overcast 2800 ft
2020/09/28 21:24 KOSU 282124Z 30019G28KT 4SM -RA BR SCT009 BKN017 OVC028 17/16 A2970 RMK AO2 PK WND 24031/2113 WSHFT 2109 PRESRR P0011 T01670156
 
KLCK - Rickenbacker Ang, Ohio, USA
Distance from station: SSW 17mi, 27km
Updated: Mon, 28-Sep-2020 4:55pm EDT
Heavy rain, Overcast
Heavy rain, Overcast
 Wind from SSW
Wind: SSW 15 mph , 24 km/h, Gust: 20 mph , 31 km/h
Temperature: 68°F , 20°C
Dew Point: 66°F , 19°C
Humidity: 94%
Barometer: 29.68 inHg , 1005.1 hPa
Summary: Heavy rain
Clouds: Overcast
Visibility: 3 miles , 5 km
Cloud details: Partly cloudy 1900 ft
Mostly cloudy 4100 ft
Overcast 5500 ft
2020/09/28 20:55 KLCK 282055Z AUTO 20013G17KT 3SM +RA SCT019 BKN041 OVC055 20/19 A2968 RMK AO2 T01950189
KVTA - Newark, Ohio, USA
Distance from station: E 19mi, 30km
Updated: Mon, 28-Sep-2020 5:32pm EDT
Light rain, Mist, Overcast
Light rain, Mist, Overcast
 Wind from SSW
Wind: SSW 8 mph , 13 km/h
Temperature: 70°F , 21°C
Dew Point: 66°F , 19°C
Humidity: 88%
Barometer: 29.69 inHg , 1005.4 hPa
Summary: Light rain, Mist
Clouds: Overcast
Visibility: 2 1/2 miles , 4 km
Cloud details: Partly cloudy 5000 ft
Mostly cloudy 7000 ft
Overcast 10000 ft
2020/09/28 21:32 KVTA 282132Z AUTO 20007KT 2 1/2SM -RA BR SCT050 BKN070 OVC100 21/19 A2969 RMK AO2 WSHFT 2041 VIS 1 1/4V5 P0014 T02110189
 
KTZR - Columbus/Bolton, Ohio, USA
Distance from station: WSW 20mi, 31km
Updated: Mon, 28-Sep-2020 5:10pm EDT
Rain, Overcast
Rain, Overcast
 Wind from SSW
Wind: SSW 14 mph , 22 km/h
Temperature: 66°F , 19°C
Dew Point: 66°F , 19°C
Humidity: 100%
Barometer: 29.68 inHg , 1005.1 hPa
Summary: Rain
Clouds: Overcast
Visibility: 5 miles , 8 km
Cloud details: Mostly cloudy 900 ft
Overcast 1500 ft
2020/09/28 21:10 KTZR 282110Z 21012KT 5SM RA BKN009 OVC015 19/19 A2968
KLHQ - Lancaster, Ohio, USA
Distance from station: SSE 22mi, 36km
Updated: Mon, 28-Sep-2020 5:30pm EDT
Heavy rain, Mist, Overcast
Heavy rain, Mist, Overcast
 Wind from SSW
Wind: SSW 14 mph , 22 km/h
Temperature: 68°F , 20°C
Dew Point: 64°F , 18°C
Humidity: 88%
Barometer: 29.70 inHg , 1005.8 hPa
Summary: Heavy rain, Mist
Clouds: Overcast
Visibility: 1 3/4 miles , 2.8 km
Cloud details: Few Clouds 1500 ft
Mostly cloudy 4800 ft
Overcast 7500 ft
2020/09/28 21:30 KLHQ 282130Z AUTO 21012KT 1 3/4SM +RA BR FEW015 BKN048 OVC075 20/18 A2970 RMK AO2 VIS 3/4V3 P0012 T02000178
 
KDLZ - Delaware, Ohio, USA
Distance from station: NW 23mi, 36km
Updated: Mon, 28-Sep-2020 5:15pm EDT
Heavy rain, Overcast
Heavy rain, Overcast
 Wind from NW
Wind: NW 21 mph , 33 km/h, Gust: 31 mph , 50 km/h
Temperature: 59°F , 15°C
Dew Point: 59°F , 15°C
Humidity: 100%
Barometer: 29.70 inHg , 1005.8 hPa
Summary: Heavy rain
Clouds: Overcast
Visibility: 1 mile , 2 km
Cloud details: Overcast 600 ft
2020/09/28 21:15 KDLZ 282115Z AUTO 31018G27KT 1SM +RA OVC006 15/15 A2970 RMK AO2 P0033
K4I3 - Mt Vernon/Knox, Ohio, USA
Distance from station: NE 25mi, 40km
Updated: Mon, 28-Sep-2020 5:15pm EDT
Rain, Overcast
Rain, Overcast
 Wind from SSW
Wind: SSW 7 mph , 11 km/h
Temperature: 66°F , 19°C
Dew Point: 63°F , 17°C
Humidity: 88%
Barometer: 29.70 inHg , 1005.8 hPa
Summary: Rain
Clouds: Overcast
Visibility: 7 miles , 11 km
Cloud details: Partly cloudy 800 ft
Mostly cloudy 1300 ft
Overcast 5500 ft
2020/09/28 21:15 K4I3 282115Z AUTO 20006KT 7SM RA SCT008 BKN013 OVC055 19/17 A2970 RMK AO2
 
KMRT - Marysville, Ohio, USA
Distance from station: WNW 30mi, 49km
Updated: Mon, 28-Sep-2020 5:19pm EDT
Overcast
Overcast
 Wind from NNW
Wind: NNW 16 mph , 26 km/h, Gust: 23 mph , 37 km/h
Temperature: 57°F , 14°C
Dew Point: 54°F , 12°C
Humidity: 88%
Barometer: 29.74 inHg , 1007.1 hPa
Clouds: Overcast
Visibility: 3 miles , 5 km
Cloud details: Partly cloudy 600 ft
Mostly cloudy 1000 ft
Overcast 2800 ft
2020/09/28 21:19 KMRT 282119Z AUTO 33014G20KT 3SM SCT006 BKN010 OVC028 14/12 A2974 RMK AO1 P0003
KMNN - Marion, Ohio, USA
Distance from station: NNW 41mi, 67km
Updated: Mon, 28-Sep-2020 5:15pm EDT
Rain, Mist, Overcast
Rain, Mist, Overcast
 Wind from NW
Wind: NW 16 mph , 26 km/h, Gust: 23 mph , 37 km/h
Temperature: 59°F , 15°C
Dew Point: 55°F , 13°C
Humidity: 88%
Barometer: 29.72 inHg , 1006.4 hPa
Summary: Rain, Mist
Clouds: Overcast
Visibility: 1 3/4 miles , 2.8 km
Cloud details: Partly cloudy 700 ft
Overcast 1600 ft
2020/09/28 21:15 KMNN 282115Z AUTO 32014G20KT 1 3/4SM RA BR SCT007 OVC016 15/13 A2972 RMK AO2 PRESRR P0009 T01500133 $
 
KZZV - Zanesville, Ohio, USA
Distance from station: E 49mi, 79km
Updated: Mon, 28-Sep-2020 4:53pm EDT
Overcast
Overcast
 Wind from S
Wind: S 13 mph , 20 km/h
Temperature: 79°F , 26°C
Dew Point: 61°F , 16°C
Humidity: 54%
Barometer: 29.67 inHg , 1004.7 hPa
Clouds: Overcast
Visibility: 10 miles , 16 km
Cloud details: Partly cloudy 5500 ft
Mostly cloudy 7000 ft
Overcast 9000 ft
2020/09/28 20:53 KZZV 282053Z AUTO 18011KT 10SM SCT055 BKN070 OVC090 26/16 A2967 RMK AO2 SLP040 T02560161 56023